Time;durP1;ratioP1;P1;durP2;ratioP2;P2;SDS_P1;SDS_P2;PMS_P1;PMS_P2;Temp;Humidity;BMP_temperature;BMP_pressure;BME280_temperature;BME280_humidity;BME280_pressure;Samples;Min_cycle;Max_cycle;Signal;HPM_P1;HPM_P2
2021/07/06 00:01:21;;;;;;;2.58;1.30;;;;;;;21.35;64.17;100416.41;5012258;28;20107;-58
2021/07/06 00:03:46;;;;;;;2.70;1.30;;;;;;;21.36;63.99;100426.00;5012508;28;20068;-58
2021/07/06 00:06:12;;;;;;;2.40;1.20;;;;;;;21.36;64.15;100415.41;5011750;28;20270;-59
2021/07/06 00:08:37;;;;;;;3.58;1.42;;;;;;;21.34;64.11;100410.25;5011968;28;20091;-57
2021/07/06 00:11:02;;;;;;;2.10;1.17;;;;;;;21.35;64.01;100401.31;5012611;28;20026;-59
2021/07/06 00:13:30;;;;;;;3.30;1.27;;;;;;;21.33;63.99;100398.00;5011430;28;20354;-58
2021/07/06 00:15:56;;;;;;;2.22;1.17;;;;;;;21.35;64.11;100403.16;5012267;28;20488;-58
2021/07/06 00:18:21;;;;;;;2.83;1.38;;;;;;;21.33;63.73;100389.22;5010712;28;20021;-58
2021/07/06 00:20:50;;;;;;;1.83;1.10;;;;;;;21.35;64.08;100400.50;5011618;28;20028;-58
2021/07/06 00:23:15;;;;;;;2.65;1.30;;;;;;;21.33;63.99;100395.34;5011845;28;20018;-58
2021/07/06 00:25:40;;;;;;;3.07;1.10;;;;;;;21.33;63.94;100387.41;5012404;28;20033;-59
2021/07/06 00:28:06;;;;;;;2.90;1.50;;;;;;;21.33;64.05;100395.34;5011612;28;20751;-58
2021/07/06 00:30:31;;;;;;;3.35;1.40;;;;;;;21.32;63.85;100396.34;5014938;28;20424;-58
2021/07/06 00:32:59;;;;;;;1.80;1.07;;;;;;;21.31;64.07;100392.00;5016134;28;20026;-58
2021/07/06 00:35:25;;;;;;;2.13;1.10;;;;;;;21.32;63.97;100393.69;5014823;28;20358;-58
2021/07/06 00:37:50;;;;;;;2.72;1.30;;;;;;;21.32;63.95;100384.91;5016194;28;20125;-58
2021/07/06 00:40:16;;;;;;;2.38;1.27;;;;;;;21.32;63.97;100383.09;5015993;28;20378;-57
2021/07/06 00:42:44;;;;;;;2.55;1.40;;;;;;;21.30;64.14;100378.91;5015416;28;20029;-58
2021/07/06 00:45:11;;;;;;;3.47;1.30;;;;;;;21.32;64.04;100384.91;5015909;28;20022;-58
2021/07/06 00:47:38;;;;;;;2.15;1.17;;;;;;;21.29;63.99;100386.03;5014752;28;20034;-58
2021/07/06 00:50:07;;;;;;;4.00;1.10;;;;;;;21.31;64.00;100389.38;5015669;28;20371;-61
2021/07/06 00:52:33;;;;;;;2.45;1.20;;;;;;;21.31;64.08;100399.97;5015663;28;20022;-58
2021/07/06 00:54:58;;;;;;;2.28;1.20;;;;;;;21.28;64.07;100394.16;5015220;28;20109;-58
2021/07/06 00:57:32;;;;;;;1.90;1.10;;;;;;;21.29;64.06;100393.19;5015463;28;20187;-58
2021/07/06 01:00:08;;;;;;;2.25;1.20;;;;;;;21.28;63.88;100375.59;5015743;28;20073;-58
2021/07/06 01:02:33;;;;;;;1.98;1.10;;;;;;;21.29;63.92;100385.22;5014555;28;20470;-59
2021/07/06 01:04:59;;;;;;;1.70;1.00;;;;;;;21.28;63.98;100371.13;5015820;28;20021;-58
2021/07/06 01:07:24;;;;;;;3.53;1.17;;;;;;;21.28;64.20;100357.88;5015385;28;20344;-58
2021/07/06 01:09:49;;;;;;;2.63;1.23;;;;;;;21.28;63.88;100351.75;5014920;28;20435;-58
2021/07/06 01:12:15;;;;;;;2.53;1.17;;;;;;;21.28;64.12;100343.78;5015186;28;20029;-58
2021/07/06 01:14:41;;;;;;;2.20;1.10;;;;;;;21.27;63.96;100336.81;5015565;28;20022;-58
2021/07/06 01:17:08;;;;;;;2.63;1.20;;;;;;;21.26;64.15;100335.19;5014320;28;20057;-57
2021/07/06 01:19:38;;;;;;;1.95;1.13;;;;;;;21.27;64.15;100342.13;5015115;28;20030;-58
2021/07/06 01:22:07;;;;;;;2.30;1.15;;;;;;;21.21;64.01;100322.41;5015620;28;20117;-58
2021/07/06 01:24:36;;;;;;;2.25;1.10;;;;;;;21.27;64.09;100334.19;5014189;28;20030;-58
2021/07/06 01:27:01;;;;;;;2.63;1.20;;;;;;;21.27;64.03;100318.28;5015263;28;20033;-57
2021/07/06 01:29:27;;;;;;;2.47;1.00;;;;;;;21.25;64.08;100299.88;5014756;28;20034;-58
2021/07/06 01:31:53;;;;;;;2.30;1.20;;;;;;;21.26;64.12;100300.72;5014067;28;20049;-58
2021/07/06 01:34:18;;;;;;;2.40;1.10;;;;;;;21.26;64.00;100290.13;5014691;28;20042;-57
2021/07/06 01:36:45;;;;;;;1.90;1.00;;;;;;;21.26;64.04;100301.56;5014167;28;20026;-57
2021/07/06 01:39:10;;;;;;;1.88;0.98;;;;;;;21.25;64.02;100294.59;5015028;28;20030;-57
2021/07/06 01:41:40;;;;;;;2.85;1.23;;;;;;;21.25;64.02;100288.47;5013186;28;20033;-58
2021/07/06 01:44:18;;;;;;;2.25;1.00;;;;;;;21.22;63.99;100283.47;5013894;28;20022;-58
2021/07/06 01:46:43;;;;;;;1.33;0.90;;;;;;;21.25;63.95;100294.59;5015018;28;20033;-59
2021/07/06 01:49:12;;;;;;;2.05;1.10;;;;;;;21.24;64.03;100292.94;5014662;28;20397;-58
2021/07/06 01:51:37;;;;;;;2.40;1.17;;;;;;;21.24;64.13;100277.03;5013903;28;20366;-58
2021/07/06 01:54:03;;;;;;;1.80;1.05;;;;;;;21.23;63.83;100269.25;5014557;28;20096;-58
2021/07/06 01:56:28;;;;;;;2.72;1.10;;;;;;;21.24;64.11;100265.59;5014316;28;20086;-57
2021/07/06 01:58:58;;;;;;;1.88;0.95;;;;;;;21.23;64.05;100278.03;5013775;28;20114;-58
2021/07/06 02:01:23;;;;;;;1.50;0.90;;;;;;;21.23;63.91;100262.13;5014355;28;20026;-58
2021/07/06 02:03:51;;;;;;;1.80;1.10;;;;;;;21.17;63.92;100245.06;5014582;28;20458;-58
2021/07/06 02:06:17;;;;;;;1.88;0.98;;;;;;;21.23;63.92;100240.91;5013359;28;20759;-59
2021/07/06 02:08:42;;;;;;;2.10;1.00;;;;;;;21.22;64.00;100239.28;5014312;28;20076;-59
2021/07/06 02:11:08;;;;;;;2.90;0.90;;;;;;;21.22;63.96;100231.31;5014270;28;20465;-59
2021/07/06 02:13:33;;;;;;;2.28;1.13;;;;;;;21.22;63.80;100217.22;5012694;28;20299;-57
2021/07/06 02:15:59;;;;;;;2.03;0.90;;;;;;;21.21;64.07;100232.31;5014040;28;20481;-58
2021/07/06 02:18:27;;;;;;;2.55;1.10;;;;;;;21.22;63.71;100227.81;5013806;28;20069;-58
2021/07/06 02:20:55;;;;;;;1.73;1.10;;;;;;;21.22;63.78;100219.88;5013508;28;20121;-58
2021/07/06 02:23:22;;;;;;;2.08;1.08;;;;;;;21.20;63.88;100215.59;5013719;28;20406;-58
2021/07/06 02:25:48;;;;;;;3.05;1.13;;;;;;;21.21;63.91;100205.81;5013904;28;20445;-58
2021/07/06 02:28:13;;;;;;;1.77;0.90;;;;;;;21.21;64.05;100213.75;5013378;28;20053;-58
2021/07/06 02:30:39;;;;;;;1.60;0.90;;;;;;;21.19;63.76;100202.50;5013906;28;20406;-58
2021/07/06 02:33:10;;;;;;;1.63;0.90;;;;;;;21.18;63.86;100191.06;5013036;28;20038;-57
2021/07/06 02:35:36;;;;;;;2.13;0.98;;;;;;;21.18;63.93;100180.44;5013213;28;20041;-58
2021/07/06 02:38:02;;;;;;;2.85;1.00;;;;;;;21.20;63.92;100180.28;5013818;28;20030;-58
2021/07/06 02:40:28;;;;;;;1.83;0.90;;;;;;;21.19;64.00;100170.69;5012734;28;20022;-58
2021/07/06 02:42:54;;;;;;;2.00;0.93;;;;;;;21.20;63.99;100159.94;5013909;28;20458;-58
2021/07/06 02:45:20;;;;;;;1.88;1.00;;;;;;;21.18;63.82;100137.25;5013473;28;20033;-58
2021/07/06 02:47:47;;;;;;;1.95;0.93;;;;;;;21.20;64.00;100127.28;5013001;28;20029;-59
2021/07/06 02:50:14;;;;;;;1.70;1.00;;;;;;;21.19;63.99;100123.81;5013495;28;20386;-58
2021/07/06 02:52:39;;;;;;;1.55;1.00;;;;;;;21.18;63.91;100129.28;5013125;28;20437;-59
2021/07/06 02:55:06;;;;;;;2.28;1.00;;;;;;;21.19;63.81;100112.41;5012723;28;20021;-57
2021/07/06 02:57:35;;;;;;;1.70;1.00;;;;;;;21.16;64.04;100110.91;5013256;28;20037;-57
2021/07/06 03:00:14;;;;;;;2.10;1.05;;;;;;;21.17;63.60;100122.31;5015335;28;20499;-57
2021/07/06 03:02:41;;;;;;;1.58;0.90;;;;;;;21.19;63.90;100136.25;5011754;28;20084;-58
2021/07/06 03:05:09;;;;;;;1.55;0.80;;;;;;;21.18;63.74;100127.47;5014588;28;20025;-58
2021/07/06 03:07:35;;;;;;;1.77;1.00;;;;;;;21.17;63.82;100114.38;5014638;28;20490;-58
2021/07/06 03:10:09;;;;;;;1.52;0.82;;;;;;;21.18;63.77;100124.81;5014797;28;20037;-58
2021/07/06 03:12:38;;;;;;;1.50;0.90;;;;;;;21.18;63.70;100121.34;5014851;28;20512;-58
2021/07/06 03:15:06;;;;;;;2.00;1.00;;;;;;;21.16;63.91;100126.81;5015385;28;20033;-58
2021/07/06 03:17:31;;;;;;;2.10;0.90;;;;;;;21.17;63.68;100136.41;5015564;28;20030;-59
2021/07/06 03:19:56;;;;;;;2.33;0.90;;;;;;;21.17;63.84;100132.91;5014744;28;20470;-58
2021/07/06 03:22:22;;;;;;;1.63;0.90;;;;;;;21.17;63.81;100122.31;5013374;28;20034;-58
2021/07/06 03:24:47;;;;;;;2.60;0.80;;;;;;;21.14;63.85;100120.00;5014487;28;20080;-57
2021/07/06 03:27:12;;;;;;;1.63;0.90;;;;;;;21.16;63.94;100118.84;5014115;28;20421;-57
2021/07/06 03:29:38;;;;;;;1.77;0.88;;;;;;;21.16;63.83;100110.09;5012675;28;20025;-57
2021/07/06 03:32:04;;;;;;;2.05;0.60;;;;;;;21.16;63.84;100116.19;5013618;28;20026;-57
2021/07/06 03:34:29;;;;;;;1.45;0.80;;;;;;;21.15;63.68;100114.53;5013200;28;20401;-58
2021/07/06 03:36:55;;;;;;;1.80;1.00;;;;;;;21.15;63.78;100114.53;5012625;28;20025;-58
2021/07/06 03:39:20;;;;;;;1.60;0.98;;;;;;;21.11;64.08;100107.06;5013168;28;20021;-58
2021/07/06 03:41:45;;;;;;;1.60;0.90;;;;;;;21.16;63.92;100110.09;5013281;28;20053;-58
2021/07/06 03:44:11;;;;;;;3.50;1.00;;;;;;;21.16;63.92;100107.44;5012739;28;20017;-58
2021/07/06 03:46:36;;;;;;;1.37;0.83;;;;;;;21.14;63.81;100096.16;5012943;28;20025;-58
2021/07/06 03:49:08;;;;;;;1.10;0.80;;;;;;;21.14;63.78;100082.91;5013182;28;20274;-58
2021/07/06 03:51:34;;;;;;;1.40;0.82;;;;;;;21.13;63.78;100083.91;5012293;28;20029;-57
2021/07/06 03:53:59;;;;;;;1.25;0.70;;;;;;;21.15;63.79;100084.56;5013424;28;20022;-59
2021/07/06 03:56:24;;;;;;;1.13;0.60;;;;;;;21.13;63.75;100073.31;5012801;28;20080;-58
2021/07/06 03:58:50;;;;;;;1.27;0.80;;;;;;;21.14;63.68;100078.44;5012656;28;20385;-58
2021/07/06 04:01:15;;;;;;;1.83;0.90;;;;;;;21.14;63.78;100077.59;5012860;28;20442;-58
2021/07/06 04:03:40;;;;;;;4.78;1.00;;;;;;;21.13;63.77;100076.78;5012275;28;20036;-57
2021/07/06 04:06:06;;;;;;;2.08;1.00;;;;;;;21.12;63.79;100084.88;5012347;28;20026;-57
2021/07/06 04:08:31;;;;;;;1.48;0.80;;;;;;;21.14;63.66;100082.91;5012899;28;20117;-58
2021/07/06 04:10:56;;;;;;;1.83;0.90;;;;;;;21.14;63.59;100085.56;5013329;28;20022;-59
2021/07/06 04:13:22;;;;;;;1.25;0.82;;;;;;;21.13;63.75;100092.69;5012097;28;20271;-58
2021/07/06 04:15:50;;;;;;;1.52;0.80;;;;;;;21.12;63.73;100087.53;5012896;28;20059;-58
2021/07/06 04:18:15;;;;;;;1.70;1.00;;;;;;;21.08;63.63;100104.75;5012509;28;20061;-58
2021/07/06 04:20:40;;;;;;;2.03;0.90;;;;;;;21.14;63.79;100104.09;5011900;28;20462;-62
2021/07/06 04:23:10;;;;;;;1.08;0.70;;;;;;;21.13;63.70;100108.56;5013026;28;20040;-57
2021/07/06 04:25:35;;;;;;;1.88;0.90;;;;;;;21.11;63.92;100115.88;5011869;28;20343;-61
2021/07/06 04:28:00;;;;;;;2.17;0.90;;;;;;;21.13;63.75;100121.00;5012658;28;20500;-58
2021/07/06 04:30:26;;;;;;;1.90;0.90;;;;;;;21.13;63.71;100132.41;5012304;28;20022;-59
2021/07/06 04:32:54;;;;;;;2.17;0.82;;;;;;;21.13;63.54;100143.03;5011421;28;20141;-59
2021/07/06 04:35:22;;;;;;;1.73;0.80;;;;;;;21.12;63.79;100144.00;5011527;28;20121;-58
2021/07/06 04:37:50;;;;;;;1.63;0.90;;;;;;;21.12;63.63;100144.00;5012177;28;20030;-58
2021/07/06 04:40:16;;;;;;;1.15;0.80;;;;;;;21.12;63.66;100165.19;5011207;28;20026;-58
2021/07/06 04:42:42;;;;;;;1.38;0.77;;;;;;;21.11;63.62;100149.47;5012448;28;20469;-58
2021/07/06 04:45:08;;;;;;;1.30;0.85;;;;;;;21.12;63.75;100156.41;5012372;28;20486;-57
2021/07/06 04:47:36;;;;;;;1.55;0.85;;;;;;;21.12;63.59;100157.25;5011503;28;20036;-58
2021/07/06 04:50:03;;;;;;;1.58;0.80;;;;;;;21.12;63.73;100148.47;5012516;28;20030;-58
2021/07/06 04:52:28;;;;;;;2.15;0.80;;;;;;;21.11;63.75;100139.72;5012031;28;20026;-58
2021/07/06 04:55:06;;;;;;;2.15;1.02;;;;;;;21.12;63.66;100138.69;5011497;28;20167;-58
2021/07/06 04:57:31;;;;;;;1.88;0.90;;;;;;;21.12;63.63;100151.13;5011990;28;20030;-58
2021/07/06 04:59:57;;;;;;;1.50;0.80;;;;;;;21.10;63.73;100164.53;5012666;28;20466;-58
2021/07/06 05:05:09;;;;;;;1.75;0.93;;;;;;;21.11;63.65;100171.50;5015888;28;20041;-60
2021/07/06 05:07:35;;;;;;;2.40;0.70;;;;;;;21.10;63.62;100155.75;5012328;28;20094;-59
2021/07/06 05:10:05;;;;;;;1.80;0.93;;;;;;;21.09;63.78;100170.00;5012325;28;20018;-58
2021/07/06 05:12:31;;;;;;;2.13;0.80;;;;;;;21.10;63.60;100164.53;5012439;28;20381;-58
2021/07/06 05:14:59;;;;;;;2.55;0.90;;;;;;;21.10;63.75;100164.53;5011792;28;20029;-59
2021/07/06 05:17:24;;;;;;;1.67;0.90;;;;;;;21.09;63.66;100162.03;5015380;28;20034;-58
2021/07/06 05:19:49;;;;;;;1.40;0.80;;;;;;;21.11;63.78;100165.34;5015499;28;20037;-59
2021/07/06 05:22:15;;;;;;;1.88;0.77;;;;;;;21.09;63.54;100165.50;5014366;28;20046;-58
2021/07/06 05:24:40;;;;;;;1.88;0.82;;;;;;;21.07;63.91;100154.25;5015407;28;20025;-58
2021/07/06 05:27:06;;;;;;;1.75;0.75;;;;;;;21.07;63.77;100154.25;5015255;28;20025;-57
2021/07/06 05:29:32;;;;;;;2.55;0.80;;;;;;;21.10;63.71;100150.47;5014524;28;20054;-61
2021/07/06 05:31:57;;;;;;;1.48;0.80;;;;;;;21.09;63.75;100151.44;5015614;28;20386;-59
2021/07/06 05:34:22;;;;;;;2.15;0.80;;;;;;;21.10;63.82;100137.22;5014833;28;20486;-59
2021/07/06 05:36:49;;;;;;;2.13;0.80;;;;;;;21.10;63.60;100142.53;5014682;28;20113;-59
2021/07/06 05:39:14;;;;;;;1.90;0.90;;;;;;;21.10;63.62;100129.28;5015079;28;20571;-59
2021/07/06 05:41:39;;;;;;;1.63;0.90;;;;;;;21.10;63.60;100143.34;5014848;28;20037;-59
2021/07/06 05:44:07;;;;;;;2.50;1.13;;;;;;;21.08;63.70;100131.22;5014206;28;20050;-59
2021/07/06 05:46:32;;;;;;;2.22;0.90;;;;;;;21.07;63.77;100130.41;5014523;28;20038;-58
2021/07/06 05:49:04;;;;;;;3.15;0.93;;;;;;;21.09;63.69;100132.91;5014817;28;20113;-58
2021/07/06 05:51:29;;;;;;;2.42;1.00;;;;;;;21.10;63.64;100131.91;5013516;28;20095;-59
2021/07/06 05:53:54;;;;;;;2.78;0.95;;;;;;;21.10;63.82;100126.63;5014585;28;20030;-58
2021/07/06 05:56:19;;;;;;;1.65;0.80;;;;;;;21.09;63.77;100117.00;5013902;28;20072;-58
2021/07/06 05:58:46;;;;;;;2.47;0.95;;;;;;;21.09;63.64;100117.00;5013765;28;20382;-58
2021/07/06 06:01:15;;;;;;;1.50;0.85;;;;;;;21.06;63.66;100120.81;5014623;28;20037;-58
2021/07/06 06:03:42;;;;;;;2.95;0.80;;;;;;;21.07;63.64;100119.81;5014217;28;20036;-59
2021/07/06 06:06:08;;;;;;;2.38;1.02;;;;;;;21.09;63.70;100123.13;5013620;28;20028;-59
2021/07/06 06:08:35;;;;;;;1.00;0.70;;;;;;;21.09;63.74;100125.78;5013984;28;20460;-59
2021/07/06 06:11:01;;;;;;;1.17;0.70;;;;;;;21.09;63.68;100124.94;5013389;28;20417;-59
2021/07/06 06:13:26;;;;;;;1.77;0.80;;;;;;;21.08;63.94;100124.13;5014136;28;20105;-59
2021/07/06 06:15:51;;;;;;;2.08;1.10;;;;;;;21.08;63.78;100113.53;5014298;28;20115;-58
2021/07/06 06:18:17;;;;;;;2.08;1.02;;;;;;;21.09;63.94;100107.22;5012787;28;20033;-58
2021/07/06 06:20:51;;;;;;;2.00;0.90;;;;;;;21.10;64.24;100110.72;5014165;28;20041;-58
2021/07/06 06:23:16;;;;;;;4.63;1.10;;;;;;;21.11;64.18;100099.97;5013576;28;20079;-60
2021/07/06 06:25:42;;;;;;;2.67;1.00;;;;;;;21.11;64.25;100102.63;5013407;28;20053;-59
2021/07/06 06:28:07;;;;;;;2.08;0.95;;;;;;;21.12;64.43;100104.25;5013235;28;20038;-58
2021/07/06 06:30:33;;;;;;;1.90;0.90;;;;;;;21.13;64.22;100097.16;5013549;28;20034;-57
2021/07/06 06:32:59;;;;;;;1.98;1.00;;;;;;;21.14;64.52;100093.50;5013303;28;20026;-59
2021/07/06 06:35:24;;;;;;;2.15;0.90;;;;;;;21.16;64.34;100096.84;5013461;28;20050;-59
2021/07/06 06:37:50;;;;;;;2.20;0.97;;;;;;;21.15;64.49;100109.22;5013533;28;20038;-59
2021/07/06 06:40:15;;;;;;;2.30;0.90;;;;;;;21.18;64.52;100108.09;5012641;28;20271;-57
2021/07/06 06:42:41;;;;;;;3.25;1.17;;;;;;;21.17;64.47;100104.63;5013800;28;20026;-58
2021/07/06 06:45:09;;;;;;;1.85;1.00;;;;;;;21.20;64.38;100120.19;5013687;28;20024;-59
2021/07/06 06:47:35;;;;;;;2.15;0.90;;;;;;;21.19;64.63;100115.88;5013003;28;20164;-60
2021/07/06 06:50:01;;;;;;;2.08;1.00;;;;;;;21.22;64.62;100121.84;5013629;28;20022;-58
2021/07/06 06:52:26;;;;;;;1.60;0.95;;;;;;;21.22;64.34;100125.34;5013126;28;20022;-58
2021/07/06 06:54:51;;;;;;;2.40;0.93;;;;;;;21.23;64.55;100128.81;5012958;28;20116;-57
2021/07/06 06:57:21;;;;;;;2.30;0.90;;;;;;;21.23;64.62;100132.28;5013132;28;20084;-59
2021/07/06 06:59:47;;;;;;;2.05;1.00;;;;;;;21.22;64.86;100138.59;5013547;28;20049;-59
2021/07/06 07:05:04;;;;;;;2.40;1.10;;;;;;;21.24;64.99;100126.00;5014900;28;20117;-58
2021/07/06 07:07:32;;;;;;;2.33;1.00;;;;;;;21.24;64.85;100126.00;5012484;28;20100;-59
2021/07/06 07:09:57;;;;;;;1.83;1.00;;;;;;;21.26;64.99;100126.66;5013432;28;20022;-59
2021/07/06 07:12:23;;;;;;;1.95;0.95;;;;;;;21.27;65.10;100130.13;5012875;28;20076;-58
2021/07/06 07:14:48;;;;;;;2.80;1.00;;;;;;;21.28;65.10;100123.84;5012602;28;20144;-58
2021/07/06 07:17:14;;;;;;;1.73;0.88;;;;;;;21.28;64.96;100127.31;5013010;28;20076;-59
2021/07/06 07:19:39;;;;;;;2.45;1.02;;;;;;;21.30;64.95;100137.75;5012843;28;20029;-59
2021/07/06 07:22:10;;;;;;;2.85;1.02;;;;;;;21.33;64.87;100137.44;5012156;28;20057;-59
2021/07/06 07:24:36;;;;;;;3.20;1.10;;;;;;;21.33;64.77;100127.69;5013484;28;20034;-60
2021/07/06 07:27:02;;;;;;;2.28;1.05;;;;;;;21.35;64.80;100132.81;5013204;28;20026;-59
2021/07/06 07:29:28;;;;;;;1.40;0.80;;;;;;;21.36;64.75;100139.75;5011984;28;20037;-58
2021/07/06 07:31:56;;;;;;;4.03;1.23;;;;;;;21.36;64.51;100140.59;5011737;28;20026;-64
2021/07/06 07:34:22;;;;;;;2.67;0.90;;;;;;;21.36;64.78;100145.91;5012272;28;20038;-59
2021/07/06 07:36:47;;;;;;;2.30;0.88;;;;;;;21.33;64.54;100156.81;5012028;28;20092;-59
2021/07/06 07:39:13;;;;;;;1.63;0.90;;;;;;;21.34;64.47;100160.28;5012849;28;20492;-58
2021/07/06 07:41:45;;;;;;;4.05;0.77;;;;;;;21.34;64.53;100161.13;5012476;28;20048;-62
2021/07/06 07:44:11;;;;;;;2.25;0.85;;;;;;;21.32;64.59;100149.03;5013285;28;20022;-62
2021/07/06 07:46:36;;;;;;;2.22;1.00;;;;;;;21.36;64.36;100169.75;5013334;28;20075;-60
2021/07/06 07:49:07;;;;;;;3.42;0.95;;;;;;;21.35;64.34;100165.44;5014313;28;20022;-60
2021/07/06 07:51:33;;;;;;;1.85;0.80;;;;;;;21.37;64.09;100174.03;5011667;28;20470;-61
2021/07/06 07:53:58;;;;;;;3.67;0.85;;;;;;;21.37;64.11;100182.00;5012461;28;20030;-60
2021/07/06 07:56:24;;;;;;;3.10;0.90;;;;;;;21.36;64.29;100177.72;5012119;28;20053;-59
2021/07/06 07:58:49;;;;;;;2.72;1.10;;;;;;;21.37;64.05;100178.53;5011759;28;20500;-59
2021/07/06 08:01:14;;;;;;;1.63;0.77;;;;;;;21.40;63.77;100188.00;5012074;28;20022;-58
2021/07/06 08:03:40;;;;;;;4.18;1.00;;;;;;;21.42;63.83;100191.28;5011836;28;20026;-58
2021/07/06 08:06:05;;;;;;;1.10;0.60;;;;;;;21.41;63.81;100192.28;5012699;28;20053;-60
2021/07/06 08:08:30;;;;;;;2.38;0.80;;;;;;;21.43;63.79;100195.59;5012374;28;20080;-59
2021/07/06 08:10:58;;;;;;;3.00;0.80;;;;;;;21.41;63.75;100201.06;5011781;28;20031;-60
2021/07/06 08:13:33;;;;;;;3.22;0.70;;;;;;;21.44;63.75;100203.38;5012170;28;20354;-59
2021/07/06 08:15:59;;;;;;;2.00;1.02;;;;;;;21.46;63.64;100212.03;5012335;28;20496;-58
2021/07/06 08:18:24;;;;;;;2.90;0.90;;;;;;;21.46;63.56;100219.97;5011210;28;20382;-60
2021/07/06 08:20:52;;;;;;;2.22;0.82;;;;;;;21.49;63.57;100213.53;5012391;28;20049;-59
2021/07/06 08:23:18;;;;;;;1.67;0.85;;;;;;;21.50;63.40;100217.84;5012008;28;20026;-59
2021/07/06 08:25:44;;;;;;;2.03;0.82;;;;;;;21.49;63.47;100218.84;5011496;28;20485;-59
2021/07/06 08:28:10;;;;;;;2.22;0.90;;;;;;;21.53;63.44;100226.31;5012301;28;20092;-60
2021/07/06 08:30:35;;;;;;;1.63;0.70;;;;;;;21.52;63.35;100235.28;5011823;28;20327;-59
2021/07/06 08:33:01;;;;;;;2.80;0.82;;;;;;;21.54;63.26;100238.56;5011393;28;20068;-60
2021/07/06 08:35:26;;;;;;;2.55;0.70;;;;;;;21.59;63.11;100237.25;5011774;28;20042;-58
2021/07/06 08:37:51;;;;;;;2.03;0.73;;;;;;;21.60;63.28;100236.25;5010897;28;20367;-59
2021/07/06 08:40:17;;;;;;;2.10;0.80;;;;;;;21.61;63.05;100229.97;5011105;28;20030;-60
2021/07/06 08:42:43;;;;;;;1.75;0.80;;;;;;;21.60;62.88;100237.09;5012076;28;20271;-60
2021/07/06 08:45:10;;;;;;;3.75;1.02;;;;;;;21.62;62.81;100236.91;5011972;28;20022;-59
2021/07/06 08:47:37;;;;;;;3.17;1.10;;;;;;;21.60;62.86;100238.91;5011148;28;20030;-58
2021/07/06 08:50:06;;;;;;;3.80;1.00;;;;;;;21.62;62.63;100248.38;5012831;28;20040;-60
2021/07/06 08:52:36;;;;;;;3.20;0.98;;;;;;;21.61;62.57;100244.06;5016217;28;20018;-59
2021/07/06 08:55:04;;;;;;;2.15;0.90;;;;;;;21.61;62.50;100256.50;5015156;28;20420;-60
2021/07/06 08:57:30;;;;;;;3.13;1.10;;;;;;;21.62;62.34;100266.94;5015379;28;20026;-59
2021/07/06 08:59:56;;;;;;;3.17;1.25;;;;;;;21.62;62.36;100258.97;5015133;28;20076;-61
2021/07/06 09:02:22;;;;;;;1.90;0.85;;;;;;;21.62;62.35;100264.28;5015449;28;20026;-59
2021/07/06 09:04:52;;;;;;;5.82;1.17;;;;;;;21.56;62.35;100247.19;5015777;28;20026;-59
2021/07/06 09:07:53;;;;;;;1.83;0.90;;;;;;;21.62;62.32;100264.28;5014787;28;20049;-59
2021/07/06 09:10:24;;;;;;;2.55;1.00;;;;;;;21.65;62.19;100263.97;5012863;28;20474;-60
2021/07/06 09:12:49;;;;;;;2.95;1.10;;;;;;;21.62;62.12;100269.59;5015172;28;20584;-58
2021/07/06 09:15:28;;;;;;;2.33;0.88;;;;;;;21.64;62.06;100250.88;5014440;28;20062;-59
2021/07/06 09:18:15;;;;;;;3.65;1.00;;;;;;;21.66;62.04;100260.31;5015478;28;20040;-59
2021/07/06 09:20:43;;;;;;;2.08;0.80;;;;;;;21.65;62.16;100261.31;5015570;28;20022;-60
2021/07/06 09:23:23;;;;;;;2.78;0.80;;;;;;;21.66;62.03;100259.47;5014694;28;20433;-60
2021/07/06 09:26:05;;;;;;;5.03;1.10;;;;;;;21.67;61.98;100266.47;5015309;28;20037;-60
2021/07/06 09:28:34;;;;;;;3.72;0.90;;;;;;;21.67;62.16;100269.94;5014459;28;20029;-61
2021/07/06 09:31:26;;;;;;;2.78;0.93;;;;;;;21.71;61.99;100267.78;5015143;28;20025;-61
2021/07/06 09:34:05;;;;;;;2.20;0.80;;;;;;;21.69;61.89;100270.59;5015154;28;20046;-60
2021/07/06 09:36:33;;;;;;;2.53;0.95;;;;;;;21.69;61.72;100267.94;5014028;28;20120;-61
2021/07/06 09:39:35;;;;;;;2.08;0.90;;;;;;;21.70;61.75;100266.13;5015168;28;20110;-58
2021/07/06 09:42:08;;;;;;;2.47;1.00;;;;;;;21.67;61.74;100274.41;5012079;28;20545;-60
2021/07/06 09:44:39;;;;;;;2.25;0.98;;;;;;;21.67;61.62;100274.41;5012664;28;20029;-59
2021/07/06 09:47:16;;;;;;;3.55;0.80;;;;;;;21.65;61.80;100287.84;5005829;28;20157;-59
2021/07/06 09:49:43;;;;;;;2.22;0.77;;;;;;;21.65;61.92;100302.88;4992715;28;20030;-57
2021/07/06 09:52:11;;;;;;;2.80;0.95;;;;;;;21.63;61.80;100303.06;4995183;28;20459;-60
2021/07/06 09:54:41;;;;;;;2.67;0.90;;;;;;;21.64;62.00;100307.38;4994884;28;20038;-66
2021/07/06 09:57:11;;;;;;;3.08;1.00;;;;;;;21.66;61.72;100313.34;4994639;28;20034;-59
2021/07/06 10:00:05;;;;;;;6.28;0.90;;;;;;;21.70;61.74;100316.53;4995100;28;20084;-59
2021/07/06 10:02:31;;;;;;;1.52;0.73;;;;;;;21.74;61.65;100312.53;4993634;28;20061;-59
2021/07/06 10:04:59;;;;;;;4.72;0.88;;;;;;;21.76;61.53;100334.41;4994916;28;20026;-59
2021/07/06 10:07:26;;;;;;;2.95;1.00;;;;;;;21.79;61.67;100307.56;4994511;28;20030;-58
2021/07/06 10:09:53;;;;;;;4.55;1.00;;;;;;;21.82;61.35;100323.16;4994814;28;20025;-60
2021/07/06 10:12:20;;;;;;;1.60;0.90;;;;;;;21.85;61.17;100328.16;4994922;28;20041;-60
2021/07/06 10:14:47;;;;;;;4.40;1.00;;;;;;;21.84;61.37;100315.91;4994706;28;20040;-59
2021/07/06 10:17:13;;;;;;;2.13;0.85;;;;;;;21.87;61.40;100320.88;4993793;28;20510;-59
2021/07/06 10:19:41;;;;;;;2.15;0.90;;;;;;;21.88;60.64;100348.22;4994456;28;20053;-58
2021/07/06 10:22:07;;;;;;;3.42;0.90;;;;;;;21.89;60.58;100340.09;4994764;28;20122;-60
2021/07/06 10:24:40;;;;;;;3.92;1.00;;;;;;;21.88;60.73;100346.41;4993654;28;20057;-60
2021/07/06 10:27:08;;;;;;;2.25;0.70;;;;;;;21.87;60.76;100352.72;4994629;28;20022;-59
2021/07/06 10:29:35;;;;;;;4.30;0.95;;;;;;;21.87;60.53;100367.78;4994177;28;20521;-60
2021/07/06 10:32:03;;;;;;;3.05;0.70;;;;;;;21.86;60.33;100374.09;4993728;28;20030;-59
2021/07/06 10:34:29;;;;;;;2.05;0.80;;;;;;;21.86;60.52;100376.75;4993939;28;20069;-60
2021/07/06 10:36:59;;;;;;;2.83;0.93;;;;;;;21.87;60.16;100395.16;4994434;28;20435;-57
2021/07/06 10:39:47;;;;;;;3.45;1.00;;;;;;;21.86;60.10;100382.88;4993251;28;20027;-59
2021/07/06 10:42:14;;;;;;;2.92;0.90;;;;;;;21.85;59.83;100396.28;4994599;28;20046;-59
2021/07/06 10:44:42;;;;;;;3.10;1.08;;;;;;;21.86;59.75;100385.53;5005528;28;20033;-59
2021/07/06 10:47:37;;;;;;;3.92;1.02;;;;;;;21.87;59.76;100381.91;5011458;28;20041;-59
2021/07/06 10:50:22;;;;;;;2.42;0.80;;;;;;;21.87;59.98;100376.59;5014071;28;20037;-58
2021/07/06 10:52:48;;;;;;;3.13;0.88;;;;;;;21.87;59.70;100395.16;5013154;28;20030;-59
2021/07/06 10:55:32;;;;;;;2.25;0.70;;;;;;;21.87;59.47;100381.91;5013566;28;20029;-59
2021/07/06 10:57:58;;;;;;;4.80;1.10;;;;;;;21.88;59.40;100378.22;5013129;28;20030;-57
2021/07/06 11:00:40;;;;;;;4.22;0.98;;;;;;;21.90;59.11;100388.69;5012292;28;20104;-61
2021/07/06 11:03:19;;;;;;;3.42;1.00;;;;;;;21.90;59.33;100394.00;5012181;28;20036;-57
2021/07/06 11:05:45;;;;;;;3.90;1.00;;;;;;;21.88;59.38;100393.31;5013587;28;20033;-57
2021/07/06 11:08:42;;;;;;;3.67;0.90;;;;;;;21.87;59.50;100396.97;5012579;28;20033;-58
2021/07/06 11:11:08;;;;;;;5.93;1.20;;;;;;;21.85;59.45;100397.13;5013004;28;20450;-57
2021/07/06 11:13:33;;;;;;;3.70;1.00;;;;;;;21.85;59.79;100397.13;5012003;28;20120;-57
2021/07/06 11:16:01;;;;;;;6.88;1.30;;;;;;;21.85;59.63;100401.59;5013025;28;20113;-57
2021/07/06 11:18:42;;;;;;;4.25;0.90;;;;;;;21.83;59.83;100398.28;5012662;28;20033;-58
2021/07/06 11:21:30;;;;;;;3.15;0.90;;;;;;;21.83;59.99;100419.50;5012563;28;20026;-58
2021/07/06 11:24:13;;;;;;;1.92;0.82;;;;;;;21.80;59.91;100420.66;5012933;28;20022;-58
2021/07/06 11:26:44;;;;;;;3.22;0.90;;;;;;;21.80;59.92;100420.66;5012825;28;20034;-57
2021/07/06 11:29:09;;;;;;;4.20;0.85;;;;;;;21.80;59.87;100427.78;5012598;28;20104;-57
2021/07/06 11:31:35;;;;;;;3.40;1.00;;;;;;;21.81;59.95;100424.13;5012486;28;20061;-56
2021/07/06 11:34:04;;;;;;;2.90;0.80;;;;;;;21.78;60.06;100412.03;5012077;28;20053;-57